sensor_id;sensor_type;location;lat;lon;timestamp;P1;durP1;ratioP1;P2;durP2;ratioP2
49241;SDS011;35079;52.704;13.814;2022-10-16T00:00:32;3.33;;;3.03;;
49241;SDS011;35079;52.704;13.814;2022-10-16T00:02:59;5.75;;;3.50;;
49241;SDS011;35079;52.704;13.814;2022-10-16T00:05:24;9.32;;;3.53;;
49241;SDS011;35079;52.704;13.814;2022-10-16T00:07:50;7.78;;;3.38;;
49241;SDS011;35079;52.704;13.814;2022-10-16T00:10:15;6.30;;;3.15;;
49241;SDS011;35079;52.704;13.814;2022-10-16T00:12:41;4.55;;;3.60;;
49241;SDS011;35079;52.704;13.814;2022-10-16T00:15:07;7.47;;;3.17;;
49241;SDS011;35079;52.704;13.814;2022-10-16T00:17:33;4.78;;;3.28;;
49241;SDS011;35079;52.704;13.814;2022-10-16T00:19:58;5.60;;;2.60;;
49241;SDS011;35079;52.704;13.814;2022-10-16T00:22:24;7.13;;;3.25;;
49241;SDS011;35079;52.704;13.814;2022-10-16T00:24:50;3.58;;;3.28;;
49241;SDS011;35079;52.704;13.814;2022-10-16T00:27:16;3.35;;;3.05;;
49241;SDS011;35079;52.704;13.814;2022-10-16T00:29:42;3.45;;;3.00;;
49241;SDS011;35079;52.704;13.814;2022-10-16T00:32:08;6.13;;;3.10;;
49241;SDS011;35079;52.704;13.814;2022-10-16T00:34:34;9.10;;;3.30;;
49241;SDS011;35079;52.704;13.814;2022-10-16T00:37:00;5.25;;;3.00;;
49241;SDS011;35079;52.704;13.814;2022-10-16T00:39:25;4.03;;;3.25;;
49241;SDS011;35079;52.704;13.814;2022-10-16T00:41:51;3.80;;;3.40;;
49241;SDS011;35079;52.704;13.814;2022-10-16T00:50:08;7.20;;;3.33;;
49241;SDS011;35079;52.704;13.814;2022-10-16T00:52:39;3.92;;;3.53;;
49241;SDS011;35079;52.704;13.814;2022-10-16T00:55:08;3.20;;;2.90;;
49241;SDS011;35079;52.704;13.814;2022-10-16T00:57:35;3.78;;;3.00;;
49241;SDS011;35079;52.704;13.814;2022-10-16T01:00:02;4.35;;;3.08;;
49241;SDS011;35079;52.704;13.814;2022-10-16T01:02:30;6.03;;;3.53;;
49241;SDS011;35079;52.704;13.814;2022-10-16T01:04:55;5.22;;;3.30;;
49241;SDS011;35079;52.704;13.814;2022-10-16T01:07:27;5.38;;;3.58;;
49241;SDS011;35079;52.704;13.814;2022-10-16T01:20:52;4.88;;;3.00;;
49241;SDS011;35079;52.704;13.814;2022-10-16T01:29:22;2.70;;;2.50;;
49241;SDS011;35079;52.704;13.814;2022-10-16T01:32:10;4.30;;;2.63;;
49241;SDS011;35079;52.704;13.814;2022-10-16T01:34:47;3.30;;;3.00;;
49241;SDS011;35079;52.704;13.814;2022-10-16T01:37:17;3.17;;;2.88;;
49241;SDS011;35079;52.704;13.814;2022-10-16T01:39:50;9.98;;;3.20;;
49241;SDS011;35079;52.704;13.814;2022-10-16T01:42:21;4.05;;;3.00;;
49241;SDS011;35079;52.704;13.814;2022-10-16T01:44:49;7.18;;;2.83;;
49241;SDS011;35079;52.704;13.814;2022-10-16T01:47:18;5.85;;;3.17;;
49241;SDS011;35079;52.704;13.814;2022-10-16T01:49:47;8.30;;;3.13;;
49241;SDS011;35079;52.704;13.814;2022-10-16T01:52:15;3.90;;;2.60;;
49241;SDS011;35079;52.704;13.814;2022-10-16T01:54:45;10.13;;;3.00;;
49241;SDS011;35079;52.704;13.814;2022-10-16T01:57:13;11.23;;;3.05;;
49241;SDS011;35079;52.704;13.814;2022-10-16T01:59:46;11.52;;;2.90;;
49241;SDS011;35079;52.704;13.814;2022-10-16T02:02:15;3.90;;;2.80;;
49241;SDS011;35079;52.704;13.814;2022-10-16T02:04:47;14.80;;;3.38;;
49241;SDS011;35079;52.704;13.814;2022-10-16T02:07:18;7.55;;;2.88;;
49241;SDS011;35079;52.704;13.814;2022-10-16T02:09:43;12.32;;;2.88;;
49241;SDS011;35079;52.704;13.814;2022-10-16T02:14:52;6.43;;;2.80;;
49241;SDS011;35079;52.704;13.814;2022-10-16T02:17:18;5.95;;;2.85;;
49241;SDS011;35079;52.704;13.814;2022-10-16T02:19:45;12.75;;;2.85;;
49241;SDS011;35079;52.704;13.814;2022-10-16T02:22:15;7.68;;;2.88;;
49241;SDS011;35079;52.704;13.814;2022-10-16T02:30:25;3.15;;;2.80;;
49241;SDS011;35079;52.704;13.814;2022-10-16T02:33:13;4.68;;;2.58;;
49241;SDS011;35079;52.704;13.814;2022-10-16T02:35:41;3.78;;;2.70;;
49241;SDS011;35079;52.704;13.814;2022-10-16T02:38:10;3.00;;;2.65;;
49241;SDS011;35079;52.704;13.814;2022-10-16T02:40:37;3.80;;;2.83;;
49241;SDS011;35079;52.704;13.814;2022-10-16T02:43:04;3.70;;;2.58;;
49241;SDS011;35079;52.704;13.814;2022-10-16T02:45:30;3.45;;;3.15;;
49241;SDS011;35079;52.704;13.814;2022-10-16T02:47:56;3.38;;;2.67;;
49241;SDS011;35079;52.704;13.814;2022-10-16T02:50:21;8.07;;;2.95;;
49241;SDS011;35079;52.704;13.814;2022-10-16T02:52:47;7.90;;;2.80;;
49241;SDS011;35079;52.704;13.814;2022-10-16T02:55:13;8.65;;;2.92;;
49241;SDS011;35079;52.704;13.814;2022-10-16T02:57:39;8.93;;;2.75;;
49241;SDS011;35079;52.704;13.814;2022-10-16T03:00:05;4.03;;;2.65;;
49241;SDS011;35079;52.704;13.814;2022-10-16T03:02:33;3.45;;;2.70;;
49241;SDS011;35079;52.704;13.814;2022-10-16T03:05:04;3.50;;;2.63;;
49241;SDS011;35079;52.704;13.814;2022-10-16T03:07:30;3.90;;;2.30;;
49241;SDS011;35079;52.704;13.814;2022-10-16T03:09:55;5.82;;;2.67;;
49241;SDS011;35079;52.704;13.814;2022-10-16T03:12:21;7.28;;;2.53;;
49241;SDS011;35079;52.704;13.814;2022-10-16T03:14:47;6.20;;;2.88;;
49241;SDS011;35079;52.704;13.814;2022-10-16T03:17:13;6.40;;;2.60;;
49241;SDS011;35079;52.704;13.814;2022-10-16T03:19:41;3.35;;;2.30;;
49241;SDS011;35079;52.704;13.814;2022-10-16T03:22:07;5.72;;;2.55;;
49241;SDS011;35079;52.704;13.814;2022-10-16T03:24:33;4.95;;;2.75;;
49241;SDS011;35079;52.704;13.814;2022-10-16T03:26:58;6.38;;;2.38;;
49241;SDS011;35079;52.704;13.814;2022-10-16T03:29:25;4.88;;;2.40;;
49241;SDS011;35079;52.704;13.814;2022-10-16T03:31:51;5.32;;;2.45;;
49241;SDS011;35079;52.704;13.814;2022-10-16T03:34:16;7.90;;;3.10;;
49241;SDS011;35079;52.704;13.814;2022-10-16T03:36:42;8.07;;;2.50;;
49241;SDS011;35079;52.704;13.814;2022-10-16T03:39:07;5.22;;;2.53;;
49241;SDS011;35079;52.704;13.814;2022-10-16T03:41:33;4.55;;;2.45;;
49241;SDS011;35079;52.704;13.814;2022-10-16T03:43:59;6.10;;;2.55;;
49241;SDS011;35079;52.704;13.814;2022-10-16T03:46:24;3.70;;;2.33;;
49241;SDS011;35079;52.704;13.814;2022-10-16T03:48:50;4.00;;;2.30;;
49241;SDS011;35079;52.704;13.814;2022-10-16T03:51:15;3.83;;;2.33;;
49241;SDS011;35079;52.704;13.814;2022-10-16T03:53:41;4.65;;;2.45;;
49241;SDS011;35079;52.704;13.814;2022-10-16T03:56:07;3.15;;;2.30;;
49241;SDS011;35079;52.704;13.814;2022-10-16T03:58:32;4.38;;;2.33;;
49241;SDS011;35079;52.704;13.814;2022-10-16T04:00:58;2.42;;;2.20;;
49241;SDS011;35079;52.704;13.814;2022-10-16T04:03:23;5.00;;;2.30;;
49241;SDS011;35079;52.704;13.814;2022-10-16T04:05:49;3.85;;;2.75;;
49241;SDS011;35079;52.704;13.814;2022-10-16T04:08:15;6.22;;;2.50;;
49241;SDS011;35079;52.704;13.814;2022-10-16T04:10:44;3.65;;;2.53;;
49241;SDS011;35079;52.704;13.814;2022-10-16T04:13:10;3.15;;;2.40;;
49241;SDS011;35079;52.704;13.814;2022-10-16T04:15:36;4.43;;;3.08;;
49241;SDS011;35079;52.704;13.814;2022-10-16T04:18:02;3.75;;;2.60;;
49241;SDS011;35079;52.704;13.814;2022-10-16T04:20:29;4.78;;;2.30;;
49241;SDS011;35079;52.704;13.814;2022-10-16T04:22:55;3.17;;;2.50;;
49241;SDS011;35079;52.704;13.814;2022-10-16T04:25:20;7.88;;;2.42;;
49241;SDS011;35079;52.704;13.814;2022-10-16T04:27:46;5.22;;;2.72;;
49241;SDS011;35079;52.704;13.814;2022-10-16T04:30:12;4.13;;;2.42;;
49241;SDS011;35079;52.704;13.814;2022-10-16T04:32:38;6.03;;;2.40;;
49241;SDS011;35079;52.704;13.814;2022-10-16T04:35:04;5.10;;;2.40;;
49241;SDS011;35079;52.704;13.814;2022-10-16T04:37:30;7.60;;;2.30;;
49241;SDS011;35079;52.704;13.814;2022-10-16T04:39:55;5.28;;;2.55;;
49241;SDS011;35079;52.704;13.814;2022-10-16T04:42:21;2.80;;;2.45;;
49241;SDS011;35079;52.704;13.814;2022-10-16T04:44:47;4.13;;;2.33;;
49241;SDS011;35079;52.704;13.814;2022-10-16T04:47:12;2.40;;;2.20;;
49241;SDS011;35079;52.704;13.814;2022-10-16T04:49:38;6.90;;;3.38;;
49241;SDS011;35079;52.704;13.814;2022-10-16T04:52:04;4.20;;;2.53;;
49241;SDS011;35079;52.704;13.814;2022-10-16T04:54:29;6.28;;;2.45;;
49241;SDS011;35079;52.704;13.814;2022-10-16T04:56:55;6.53;;;2.50;;
49241;SDS011;35079;52.704;13.814;2022-10-16T04:59:21;10.18;;;2.60;;
49241;SDS011;35079;52.704;13.814;2022-10-16T05:01:47;3.83;;;2.58;;
49241;SDS011;35079;52.704;13.814;2022-10-16T05:04:13;3.13;;;2.60;;
49241;SDS011;35079;52.704;13.814;2022-10-16T05:06:40;2.70;;;2.50;;
49241;SDS011;35079;52.704;13.814;2022-10-16T05:09:06;4.78;;;3.35;;
49241;SDS011;35079;52.704;13.814;2022-10-16T05:11:31;8.27;;;3.03;;
49241;SDS011;35079;52.704;13.814;2022-10-16T05:13:57;3.42;;;3.13;;
49241;SDS011;35079;52.704;13.814;2022-10-16T05:16:23;6.75;;;2.83;;
49241;SDS011;35079;52.704;13.814;2022-10-16T05:18:49;3.28;;;2.50;;
49241;SDS011;35079;52.704;13.814;2022-10-16T05:21:16;4.53;;;2.72;;
49241;SDS011;35079;52.704;13.814;2022-10-16T05:23:42;5.95;;;3.00;;
49241;SDS011;35079;52.704;13.814;2022-10-16T05:26:07;3.40;;;2.75;;
49241;SDS011;35079;52.704;13.814;2022-10-16T05:28:33;2.60;;;2.38;;
49241;SDS011;35079;52.704;13.814;2022-10-16T05:30:58;5.38;;;2.70;;
49241;SDS011;35079;52.704;13.814;2022-10-16T05:33:28;5.78;;;2.70;;
49241;SDS011;35079;52.704;13.814;2022-10-16T05:35:54;4.07;;;2.67;;
49241;SDS011;35079;52.704;13.814;2022-10-16T05:38:19;3.50;;;2.67;;
49241;SDS011;35079;52.704;13.814;2022-10-16T05:40:54;2.78;;;2.40;;
49241;SDS011;35079;52.704;13.814;2022-10-16T05:43:21;8.82;;;2.50;;
49241;SDS011;35079;52.704;13.814;2022-10-16T05:46:05;3.30;;;2.50;;
49241;SDS011;35079;52.704;13.814;2022-10-16T05:48:31;8.23;;;2.70;;
49241;SDS011;35079;52.704;13.814;2022-10-16T05:50:58;6.03;;;2.80;;
49241;SDS011;35079;52.704;13.814;2022-10-16T05:53:26;4.50;;;2.90;;
49241;SDS011;35079;52.704;13.814;2022-10-16T05:55:53;2.80;;;2.60;;
49241;SDS011;35079;52.704;13.814;2022-10-16T05:58:20;4.07;;;2.80;;
49241;SDS011;35079;52.704;13.814;2022-10-16T06:00:53;3.00;;;2.80;;
49241;SDS011;35079;52.704;13.814;2022-10-16T06:03:22;2.60;;;2.40;;
49241;SDS011;35079;52.704;13.814;2022-10-16T06:05:49;5.32;;;2.97;;
49241;SDS011;35079;52.704;13.814;2022-10-16T06:08:15;5.47;;;2.97;;
49241;SDS011;35079;52.704;13.814;2022-10-16T06:10:41;2.75;;;2.53;;
49241;SDS011;35079;52.704;13.814;2022-10-16T06:13:06;3.80;;;3.10;;
49241;SDS011;35079;52.704;13.814;2022-10-16T06:15:32;9.63;;;2.78;;
49241;SDS011;35079;52.704;13.814;2022-10-16T06:17:58;3.22;;;2.95;;
49241;SDS011;35079;52.704;13.814;2022-10-16T06:20:23;3.13;;;2.83;;
49241;SDS011;35079;52.704;13.814;2022-10-16T06:22:49;3.65;;;2.80;;
49241;SDS011;35079;52.704;13.814;2022-10-16T06:25:15;4.68;;;2.63;;
49241;SDS011;35079;52.704;13.814;2022-10-16T06:27:40;2.70;;;2.50;;
49241;SDS011;35079;52.704;13.814;2022-10-16T06:30:06;4.20;;;2.78;;
49241;SDS011;35079;52.704;13.814;2022-10-16T06:32:32;2.78;;;2.30;;
49241;SDS011;35079;52.704;13.814;2022-10-16T06:34:58;3.67;;;2.60;;
49241;SDS011;35079;52.704;13.814;2022-10-16T06:37:24;3.63;;;2.60;;
49241;SDS011;35079;52.704;13.814;2022-10-16T06:39:50;2.47;;;2.28;;
49241;SDS011;35079;52.704;13.814;2022-10-16T06:42:17;3.85;;;2.70;;
49241;SDS011;35079;52.704;13.814;2022-10-16T06:44:43;4.53;;;2.65;;
49241;SDS011;35079;52.704;13.814;2022-10-16T06:47:09;2.88;;;2.50;;
49241;SDS011;35079;52.704;13.814;2022-10-16T06:49:34;2.70;;;2.50;;
49241;SDS011;35079;52.704;13.814;2022-10-16T06:52:00;3.42;;;2.75;;
49241;SDS011;35079;52.704;13.814;2022-10-16T06:54:26;6.07;;;2.40;;
49241;SDS011;35079;52.704;13.814;2022-10-16T06:56:52;2.38;;;2.17;;
49241;SDS011;35079;52.704;13.814;2022-10-16T06:59:19;5.35;;;2.00;;
49241;SDS011;35079;52.704;13.814;2022-10-16T07:01:48;7.13;;;2.38;;
49241;SDS011;35079;52.704;13.814;2022-10-16T07:04:13;2.85;;;2.10;;
49241;SDS011;35079;52.704;13.814;2022-10-16T07:06:39;3.50;;;2.20;;
49241;SDS011;35079;52.704;13.814;2022-10-16T07:09:06;5.93;;;2.55;;
49241;SDS011;35079;52.704;13.814;2022-10-16T07:11:34;5.15;;;2.28;;
49241;SDS011;35079;52.704;13.814;2022-10-16T07:14:01;3.05;;;2.10;;
49241;SDS011;35079;52.704;13.814;2022-10-16T07:16:28;5.07;;;2.47;;
49241;SDS011;35079;52.704;13.814;2022-10-16T07:18:54;4.68;;;1.88;;
49241;SDS011;35079;52.704;13.814;2022-10-16T07:21:24;1.95;;;1.85;;
49241;SDS011;35079;52.704;13.814;2022-10-16T07:23:55;3.33;;;2.00;;
49241;SDS011;35079;52.704;13.814;2022-10-16T07:26:24;2.00;;;1.90;;
49241;SDS011;35079;52.704;13.814;2022-10-16T07:28:50;3.22;;;2.17;;
49241;SDS011;35079;52.704;13.814;2022-10-16T07:31:17;3.42;;;1.70;;
49241;SDS011;35079;52.704;13.814;2022-10-16T07:33:44;2.30;;;1.67;;
49241;SDS011;35079;52.704;13.814;2022-10-16T07:36:12;1.95;;;1.60;;
49241;SDS011;35079;52.704;13.814;2022-10-16T07:38:39;4.28;;;1.70;;
49241;SDS011;35079;52.704;13.814;2022-10-16T07:41:09;1.50;;;1.40;;
49241;SDS011;35079;52.704;13.814;2022-10-16T07:43:50;3.15;;;1.48;;
49241;SDS011;35079;52.704;13.814;2022-10-16T07:46:17;1.90;;;1.70;;
49241;SDS011;35079;52.704;13.814;2022-10-16T07:48:44;5.18;;;2.25;;
49241;SDS011;35079;52.704;13.814;2022-10-16T07:51:12;4.05;;;1.50;;
49241;SDS011;35079;52.704;13.814;2022-10-16T07:53:42;2.97;;;1.70;;
49241;SDS011;35079;52.704;13.814;2022-10-16T07:56:08;3.17;;;1.60;;
49241;SDS011;35079;52.704;13.814;2022-10-16T07:58:34;2.40;;;1.40;;
49241;SDS011;35079;52.704;13.814;2022-10-16T08:01:04;1.73;;;1.60;;
49241;SDS011;35079;52.704;13.814;2022-10-16T08:03:31;2.55;;;1.50;;
49241;SDS011;35079;52.704;13.814;2022-10-16T08:05:58;2.28;;;1.38;;
49241;SDS011;35079;52.704;13.814;2022-10-16T08:08:24;1.70;;;1.50;;
49241;SDS011;35079;52.704;13.814;2022-10-16T08:10:50;1.77;;;1.50;;
49241;SDS011;35079;52.704;13.814;2022-10-16T08:13:16;4.30;;;1.42;;
49241;SDS011;35079;52.704;13.814;2022-10-16T08:15:42;1.40;;;1.30;;
49241;SDS011;35079;52.704;13.814;2022-10-16T08:18:09;1.55;;;1.45;;
49241;SDS011;35079;52.704;13.814;2022-10-16T08:20:39;1.88;;;1.73;;
49241;SDS011;35079;52.704;13.814;2022-10-16T08:23:06;1.60;;;1.50;;
49241;SDS011;35079;52.704;13.814;2022-10-16T08:25:34;1.50;;;1.40;;
49241;SDS011;35079;52.704;13.814;2022-10-16T08:28:02;2.25;;;1.58;;
49241;SDS011;35079;52.704;13.814;2022-10-16T08:30:32;6.18;;;1.73;;
49241;SDS011;35079;52.704;13.814;2022-10-16T08:32:58;4.68;;;1.88;;
49241;SDS011;35079;52.704;13.814;2022-10-16T08:35:24;2.35;;;1.65;;
49241;SDS011;35079;52.704;13.814;2022-10-16T08:37:50;2.15;;;1.60;;
49241;SDS011;35079;52.704;13.814;2022-10-16T08:40:25;2.10;;;1.65;;
49241;SDS011;35079;52.704;13.814;2022-10-16T08:48:38;2.80;;;1.67;;
49241;SDS011;35079;52.704;13.814;2022-10-16T08:51:24;5.20;;;1.77;;
49241;SDS011;35079;52.704;13.814;2022-10-16T08:53:57;3.53;;;1.70;;
49241;SDS011;35079;52.704;13.814;2022-10-16T08:56:43;2.05;;;1.80;;
49241;SDS011;35079;52.704;13.814;2022-10-16T08:59:11;2.28;;;1.60;;
49241;SDS011;35079;52.704;13.814;2022-10-16T09:01:41;7.20;;;2.20;;
49241;SDS011;35079;52.704;13.814;2022-10-16T09:19:49;3.47;;;1.70;;
49241;SDS011;35079;52.704;13.814;2022-10-16T09:22:20;1.87;;;1.50;;
49241;SDS011;35079;52.704;13.814;2022-10-16T09:24:50;3.15;;;1.30;;
49241;SDS011;35079;52.704;13.814;2022-10-16T09:27:15;1.88;;;1.40;;
49241;SDS011;35079;52.704;13.814;2022-10-16T09:29:41;1.40;;;1.30;;
49241;SDS011;35079;52.704;13.814;2022-10-16T09:32:17;4.10;;;1.42;;
49241;SDS011;35079;52.704;13.814;2022-10-16T09:34:47;2.83;;;1.35;;
49241;SDS011;35079;52.704;13.814;2022-10-16T09:37:17;4.75;;;1.10;;
49241;SDS011;35079;52.704;13.814;2022-10-16T09:39:49;1.20;;;1.10;;
49241;SDS011;35079;52.704;13.814;2022-10-16T09:42:24;2.30;;;1.05;;
49241;SDS011;35079;52.704;13.814;2022-10-16T09:44:56;2.85;;;1.25;;
49241;SDS011;35079;52.704;13.814;2022-10-16T09:47:23;1.20;;;1.10;;
49241;SDS011;35079;52.704;13.814;2022-10-16T09:50:01;1.13;;;1.05;;
49241;SDS011;35079;52.704;13.814;2022-10-16T09:52:31;1.17;;;1.00;;
49241;SDS011;35079;52.704;13.814;2022-10-16T09:54:58;2.45;;;1.10;;
49241;SDS011;35079;52.704;13.814;2022-10-16T09:57:26;1.52;;;1.42;;
49241;SDS011;35079;52.704;13.814;2022-10-16T09:59:53;1.70;;;1.40;;
49241;SDS011;35079;52.704;13.814;2022-10-16T10:02:23;3.33;;;1.40;;
49241;SDS011;35079;52.704;13.814;2022-10-16T10:04:55;4.53;;;1.35;;
49241;SDS011;35079;52.704;13.814;2022-10-16T10:07:30;5.50;;;1.30;;
49241;SDS011;35079;52.704;13.814;2022-10-16T10:09:59;4.32;;;1.30;;
49241;SDS011;35079;52.704;13.814;2022-10-16T10:12:32;1.50;;;1.23;;
49241;SDS011;35079;52.704;13.814;2022-10-16T10:15:06;4.28;;;1.30;;
49241;SDS011;35079;52.704;13.814;2022-10-16T10:22:59;1.42;;;1.20;;
49241;SDS011;35079;52.704;13.814;2022-10-16T10:31:25;4.93;;;1.20;;
49241;SDS011;35079;52.704;13.814;2022-10-16T10:36:34;3.78;;;1.20;;
49241;SDS011;35079;52.704;13.814;2022-10-16T10:39:06;1.35;;;1.15;;
49241;SDS011;35079;52.704;13.814;2022-10-16T10:41:41;4.00;;;1.38;;
49241;SDS011;35079;52.704;13.814;2022-10-16T10:49:19;1.45;;;1.15;;
49241;SDS011;35079;52.704;13.814;2022-10-16T10:57:40;5.50;;;1.50;;
49241;SDS011;35079;52.704;13.814;2022-10-16T11:05:49;3.20;;;1.20;;
49241;SDS011;35079;52.704;13.814;2022-10-16T11:08:27;3.13;;;1.13;;
49241;SDS011;35079;52.704;13.814;2022-10-16T11:19:11;1.63;;;1.00;;
49241;SDS011;35079;52.704;13.814;2022-10-16T11:21:44;5.07;;;1.23;;
49241;SDS011;35079;52.704;13.814;2022-10-16T11:24:23;5.95;;;1.30;;
49241;SDS011;35079;52.704;13.814;2022-10-16T11:26:57;2.55;;;0.90;;
49241;SDS011;35079;52.704;13.814;2022-10-16T11:29:29;5.65;;;0.88;;
49241;SDS011;35079;52.704;13.814;2022-10-16T11:31:57;5.00;;;0.95;;
49241;SDS011;35079;52.704;13.814;2022-10-16T11:34:32;3.35;;;0.80;;
49241;SDS011;35079;52.704;13.814;2022-10-16T11:39:50;1.35;;;0.80;;
49241;SDS011;35079;52.704;13.814;2022-10-16T11:42:24;2.13;;;0.90;;
49241;SDS011;35079;52.704;13.814;2022-10-16T11:47:45;3.28;;;1.25;;
49241;SDS011;35079;52.704;13.814;2022-10-16T11:50:30;2.28;;;0.88;;
49241;SDS011;35079;52.704;13.814;2022-10-16T11:53:11;4.13;;;0.70;;
49241;SDS011;35079;52.704;13.814;2022-10-16T11:55:39;1.77;;;0.93;;
49241;SDS011;35079;52.704;13.814;2022-10-16T11:58:07;2.92;;;0.73;;
49241;SDS011;35079;52.704;13.814;2022-10-16T12:00:57;1.80;;;0.70;;
49241;SDS011;35079;52.704;13.814;2022-10-16T12:03:42;2.50;;;0.70;;
49241;SDS011;35079;52.704;13.814;2022-10-16T12:08:59;2.00;;;0.60;;
49241;SDS011;35079;52.704;13.814;2022-10-16T12:13:51;2.38;;;0.60;;
49241;SDS011;35079;52.704;13.814;2022-10-16T12:16:55;4.75;;;0.70;;
49241;SDS011;35079;52.704;13.814;2022-10-16T12:19:23;1.10;;;0.60;;
49241;SDS011;35079;52.704;13.814;2022-10-16T12:21:50;2.58;;;0.50;;
49241;SDS011;35079;52.704;13.814;2022-10-16T12:26:51;5.85;;;1.15;;
49241;SDS011;35079;52.704;13.814;2022-10-16T12:34:26;4.93;;;0.77;;
49241;SDS011;35079;52.704;13.814;2022-10-16T12:37:08;2.43;;;0.70;;
49241;SDS011;35079;52.704;13.814;2022-10-16T12:39:54;2.45;;;0.85;;
49241;SDS011;35079;52.704;13.814;2022-10-16T12:44:52;2.63;;;0.65;;
49241;SDS011;35079;52.704;13.814;2022-10-16T12:47:34;0.60;;;0.60;;
49241;SDS011;35079;52.704;13.814;2022-10-16T12:50:02;1.55;;;0.60;;
49241;SDS011;35079;52.704;13.814;2022-10-16T12:52:47;2.05;;;0.55;;
49241;SDS011;35079;52.704;13.814;2022-10-16T12:55:17;1.27;;;0.65;;
49241;SDS011;35079;52.704;13.814;2022-10-16T13:00:45;3.83;;;0.73;;
49241;SDS011;35079;52.704;13.814;2022-10-16T13:11:02;3.60;;;0.63;;
49241;SDS011;35079;52.704;13.814;2022-10-16T13:30:32;4.45;;;0.70;;
49241;SDS011;35079;52.704;13.814;2022-10-16T13:33:16;5.18;;;0.50;;
49241;SDS011;35079;52.704;13.814;2022-10-16T13:35:49;1.77;;;0.60;;
49241;SDS011;35079;52.704;13.814;2022-10-16T13:38:20;3.58;;;0.50;;
49241;SDS011;35079;52.704;13.814;2022-10-16T13:40:53;1.98;;;0.55;;
49241;SDS011;35079;52.704;13.814;2022-10-16T13:43:25;1.50;;;0.60;;
49241;SDS011;35079;52.704;13.814;2022-10-16T13:46:15;3.72;;;0.70;;
49241;SDS011;35079;52.704;13.814;2022-10-16T13:48:42;2.08;;;0.50;;
49241;SDS011;35079;52.704;13.814;2022-10-16T13:51:16;0.57;;;0.47;;
49241;SDS011;35079;52.704;13.814;2022-10-16T13:53:43;1.20;;;0.67;;
49241;SDS011;35079;52.704;13.814;2022-10-16T13:56:13;1.75;;;0.60;;
49241;SDS011;35079;52.704;13.814;2022-10-16T13:58:40;1.80;;;1.17;;
49241;SDS011;35079;52.704;13.814;2022-10-16T14:03:51;1.27;;;1.15;;
49241;SDS011;35079;52.704;13.814;2022-10-16T14:06:18;1.85;;;0.60;;
49241;SDS011;35079;52.704;13.814;2022-10-16T14:08:49;1.48;;;0.57;;
49241;SDS011;35079;52.704;13.814;2022-10-16T14:11:55;9.93;;;0.75;;
49241;SDS011;35079;52.704;13.814;2022-10-16T14:14:26;3.08;;;0.50;;
49241;SDS011;35079;52.704;13.814;2022-10-16T14:17:00;0.55;;;0.52;;
49241;SDS011;35079;52.704;13.814;2022-10-16T14:19:27;3.05;;;0.60;;
49241;SDS011;35079;52.704;13.814;2022-10-16T14:21:54;3.15;;;0.65;;
49241;SDS011;35079;52.704;13.814;2022-10-16T14:24:31;2.88;;;0.60;;
49241;SDS011;35079;52.704;13.814;2022-10-16T14:26:59;1.25;;;0.52;;
49241;SDS011;35079;52.704;13.814;2022-10-16T14:29:26;3.08;;;0.63;;
49241;SDS011;35079;52.704;13.814;2022-10-16T14:32:04;3.70;;;0.60;;
49241;SDS011;35079;52.704;13.814;2022-10-16T14:34:31;1.60;;;0.57;;
49241;SDS011;35079;52.704;13.814;2022-10-16T14:36:59;3.72;;;0.50;;
49241;SDS011;35079;52.704;13.814;2022-10-16T14:39:32;0.52;;;0.32;;
49241;SDS011;35079;52.704;13.814;2022-10-16T14:41:59;5.38;;;0.60;;
49241;SDS011;35079;52.704;13.814;2022-10-16T14:44:31;5.28;;;0.65;;
49241;SDS011;35079;52.704;13.814;2022-10-16T14:46:58;1.25;;;0.50;;
49241;SDS011;35079;52.704;13.814;2022-10-16T14:49:33;3.42;;;0.60;;
49241;SDS011;35079;52.704;13.814;2022-10-16T14:51:59;2.63;;;0.47;;
49241;SDS011;35079;52.704;13.814;2022-10-16T14:54:24;6.75;;;0.70;;
49241;SDS011;35079;52.704;13.814;2022-10-16T14:56:51;2.90;;;0.80;;
49241;SDS011;35079;52.704;13.814;2022-10-16T14:59:30;6.47;;;0.85;;
49241;SDS011;35079;52.704;13.814;2022-10-16T15:04:46;5.85;;;0.75;;
49241;SDS011;35079;52.704;13.814;2022-10-16T15:07:12;3.97;;;0.55;;
49241;SDS011;35079;52.704;13.814;2022-10-16T15:09:37;10.43;;;1.10;;
49241;SDS011;35079;52.704;13.814;2022-10-16T15:12:03;7.30;;;0.68;;
49241;SDS011;35079;52.704;13.814;2022-10-16T15:14:29;3.83;;;0.85;;
49241;SDS011;35079;52.704;13.814;2022-10-16T15:16:54;4.60;;;0.60;;
49241;SDS011;35079;52.704;13.814;2022-10-16T15:19:20;1.95;;;0.70;;
49241;SDS011;35079;52.704;13.814;2022-10-16T15:21:46;2.72;;;0.82;;
49241;SDS011;35079;52.704;13.814;2022-10-16T15:24:13;2.15;;;0.57;;
49241;SDS011;35079;52.704;13.814;2022-10-16T15:26:39;3.67;;;0.88;;
49241;SDS011;35079;52.704;13.814;2022-10-16T15:29:05;15.35;;;0.93;;
49241;SDS011;35079;52.704;13.814;2022-10-16T15:31:31;1.70;;;0.60;;
49241;SDS011;35079;52.704;13.814;2022-10-16T15:33:57;7.93;;;0.73;;
49241;SDS011;35079;52.704;13.814;2022-10-16T15:36:41;7.28;;;0.80;;
49241;SDS011;35079;52.704;13.814;2022-10-16T15:39:13;7.13;;;0.93;;
49241;SDS011;35079;52.704;13.814;2022-10-16T15:41:44;6.00;;;0.90;;
49241;SDS011;35079;52.704;13.814;2022-10-16T15:44:15;3.50;;;0.52;;
49241;SDS011;35079;52.704;13.814;2022-10-16T15:46:45;4.15;;;0.63;;
49241;SDS011;35079;52.704;13.814;2022-10-16T15:49:12;4.43;;;0.68;;
49241;SDS011;35079;52.704;13.814;2022-10-16T15:51:38;5.70;;;0.70;;
49241;SDS011;35079;52.704;13.814;2022-10-16T15:54:05;6.75;;;0.80;;
49241;SDS011;35079;52.704;13.814;2022-10-16T15:56:31;3.30;;;0.70;;
49241;SDS011;35079;52.704;13.814;2022-10-16T15:58:58;8.60;;;1.10;;
49241;SDS011;35079;52.704;13.814;2022-10-16T16:01:24;6.03;;;0.70;;
49241;SDS011;35079;52.704;13.814;2022-10-16T16:03:54;2.60;;;0.70;;
49241;SDS011;35079;52.704;13.814;2022-10-16T16:06:20;6.25;;;0.73;;
49241;SDS011;35079;52.704;13.814;2022-10-16T16:08:48;5.70;;;0.95;;
49241;SDS011;35079;52.704;13.814;2022-10-16T16:11:15;3.80;;;0.88;;
49241;SDS011;35079;52.704;13.814;2022-10-16T16:13:43;4.22;;;0.80;;
49241;SDS011;35079;52.704;13.814;2022-10-16T16:16:10;3.33;;;0.75;;
49241;SDS011;35079;52.704;13.814;2022-10-16T16:18:39;2.25;;;1.00;;
49241;SDS011;35079;52.704;13.814;2022-10-16T16:21:05;5.95;;;0.85;;
49241;SDS011;35079;52.704;13.814;2022-10-16T16:23:31;1.95;;;0.90;;
49241;SDS011;35079;52.704;13.814;2022-10-16T16:26:11;7.85;;;1.20;;
49241;SDS011;35079;52.704;13.814;2022-10-16T16:28:56;5.15;;;0.90;;
49241;SDS011;35079;52.704;13.814;2022-10-16T16:31:25;5.28;;;1.00;;
49241;SDS011;35079;52.704;13.814;2022-10-16T16:33:53;3.65;;;0.93;;
49241;SDS011;35079;52.704;13.814;2022-10-16T16:36:19;4.93;;;1.17;;
49241;SDS011;35079;52.704;13.814;2022-10-16T16:38:45;3.22;;;0.90;;
49241;SDS011;35079;52.704;13.814;2022-10-16T16:41:12;6.05;;;1.25;;
49241;SDS011;35079;52.704;13.814;2022-10-16T16:43:42;4.78;;;1.02;;
49241;SDS011;35079;52.704;13.814;2022-10-16T16:46:08;7.15;;;0.93;;
49241;SDS011;35079;52.704;13.814;2022-10-16T16:48:34;6.25;;;1.52;;
49241;SDS011;35079;52.704;13.814;2022-10-16T16:51:04;4.60;;;1.10;;
49241;SDS011;35079;52.704;13.814;2022-10-16T16:53:32;1.13;;;1.00;;
49241;SDS011;35079;52.704;13.814;2022-10-16T16:56:05;4.22;;;1.27;;
49241;SDS011;35079;52.704;13.814;2022-10-16T16:58:32;2.17;;;1.33;;
49241;SDS011;35079;52.704;13.814;2022-10-16T17:00:58;2.53;;;1.10;;
49241;SDS011;35079;52.704;13.814;2022-10-16T17:03:27;2.50;;;1.35;;
49241;SDS011;35079;52.704;13.814;2022-10-16T17:08:27;2.17;;;1.23;;
49241;SDS011;35079;52.704;13.814;2022-10-16T17:10:53;5.88;;;1.70;;